Kellys Korner, Washington
Current Conditions -  °F | °C
As of 5:54 AM on Thursday 23 Oct 2014 (Local Time) from KOLM Reporting Station
Light Rain Light Rain  
Wind Chill: 51°   Ceiling: 5500
Heat Index: 51°   Visibility: 7mi
Dew Point: 49°   Wind: 10mph
Humidity: 92%   Direction: 180°S
Pressure: 29.74"   Gusts: NA
Location:  46.9679°N, 122.834°W
Report Text: KOLM 231254Z AUTO 18009KT 7SM -RA OVC055 11/09 A2974 RMK AO2 SLP071 P0004 T01060094 $
Loading
Personal Weather Stations






























Interactive Weather Map
Tropical Storm Tracking
New forecast layout! Learn more

10-Day Weather Forecast

Advertisements
Track Severe Weather on mobile